Time;durP1;ratioP1;P1;durP2;ratioP2;P2;SDS_P1;SDS_P2;PMS_P1;PMS_P2;Temp;Humidity;BMP_temperature;BMP_pressure;BME280_temperature;BME280_humidity;BME280_pressure;Samples;Min_cycle;Max_cycle;Signal;HPM_P1;HPM_P2
2023/10/26 00:01:34;;;;;;;1.67;1.57;;;23.10;68.50;;;;;;4999189;28;20488;-76
2023/10/26 00:04:03;;;;;;;2.70;1.57;;;23.10;68.40;;;;;;5002721;28;20465;-77
2023/10/26 00:06:31;;;;;;;3.30;1.73;;;23.10;68.50;;;;;;5003277;28;20469;-77
2023/10/26 00:08:59;;;;;;;1.87;1.57;;;23.10;68.50;;;;;;5009613;28;20491;-76
2023/10/26 00:11:30;;;;;;;1.87;1.60;;;23.10;68.30;;;;;;5001313;28;20559;-76
2023/10/26 00:13:58;;;;;;;3.50;2.20;;;23.00;68.30;;;;;;5007347;28;20467;-77
2023/10/26 00:16:26;;;;;;;2.00;1.57;;;23.10;68.50;;;;;;5006502;28;20491;-76
2023/10/26 00:18:56;;;;;;;3.13;1.83;;;23.00;68.50;;;;;;5006777;28;20454;-76
2023/10/26 00:21:24;;;;;;;2.83;1.57;;;23.00;68.60;;;;;;5008547;28;20996;-75
2023/10/26 00:23:52;;;;;;;2.23;1.63;;;23.00;68.60;;;;;;5007994;28;20615;-77
2023/10/26 00:26:21;;;;;;;2.27;2.07;;;23.00;68.50;;;;;;5007007;28;20515;-76
2023/10/26 00:28:51;;;;;;;2.37;1.60;;;23.00;68.50;;;;;;5003891;28;20461;-76
2023/10/26 00:31:19;;;;;;;1.50;1.40;;;23.00;68.70;;;;;;5009306;28;20480;-76
2023/10/26 00:33:47;;;;;;;1.60;1.50;;;23.00;68.40;;;;;;5003873;28;20460;-76
2023/10/26 00:36:17;;;;;;;1.80;1.67;;;23.00;68.60;;;;;;5005360;28;20497;-76
2023/10/26 00:38:45;;;;;;;2.53;1.30;;;23.00;68.60;;;;;;5008766;28;20783;-76
2023/10/26 00:41:13;;;;;;;1.20;1.20;;;23.00;68.80;;;;;;5009649;28;20994;-76
2023/10/26 00:43:42;;;;;;;2.80;1.20;;;23.00;68.80;;;;;;5007171;28;20457;-76
2023/10/26 00:46:11;;;;;;;1.10;0.97;;;23.00;68.70;;;;;;5006899;28;20476;-76
2023/10/26 00:48:40;;;;;;;1.37;1.27;;;23.00;68.70;;;;;;5007315;28;20457;-76
2023/10/26 00:51:09;;;;;;;2.67;1.53;;;23.00;68.70;;;;;;5005963;28;20464;-77
2023/10/26 00:53:40;;;;;;;1.80;1.23;;;23.00;68.70;;;;;;5010361;28;20464;-77
2023/10/26 00:56:11;;;;;;;1.43;1.30;;;22.90;68.70;;;;;;5008873;28;20496;-76
2023/10/26 00:58:40;;;;;;;4.90;2.27;;;22.90;68.70;;;;;;5008346;28;20529;-76
2023/10/26 01:01:11;;;;;;;1.30;1.20;;;22.90;68.50;;;;;;5007596;28;20829;-76
2023/10/26 01:03:40;;;;;;;1.33;1.30;;;22.90;68.70;;;;;;5006420;28;20464;-75
2023/10/26 01:06:09;;;;;;;1.33;1.20;;;22.90;68.40;;;;;;5008360;28;20465;-76
2023/10/26 01:08:39;;;;;;;1.57;1.37;;;22.90;68.50;;;;;;5007955;28;20548;-76
2023/10/26 01:11:07;;;;;;;1.53;1.43;;;22.90;68.50;;;;;;5003231;28;20457;-76
2023/10/26 01:13:36;;;;;;;1.57;1.47;;;22.90;68.70;;;;;;5000965;28;20457;-76
2023/10/26 01:16:05;;;;;;;2.23;1.30;;;22.90;68.60;;;;;;5004179;28;21274;-76
2023/10/26 01:18:33;;;;;;;1.20;1.10;;;22.90;68.70;;;;;;5007239;28;20968;-76
2023/10/26 01:21:01;;;;;;;3.73;1.10;;;22.90;68.70;;;;;;5007561;28;20560;-76
2023/10/26 01:23:31;;;;;;;1.73;1.53;;;22.90;68.60;;;;;;5011997;28;20501;-76
2023/10/26 01:26:00;;;;;;;1.63;1.33;;;22.90;68.50;;;;;;5007729;28;20865;-76
2023/10/26 01:28:28;;;;;;;2.70;1.50;;;22.90;68.30;;;;;;5007524;28;20499;-76
2023/10/26 01:30:57;;;;;;;2.20;1.30;;;22.90;68.30;;;;;;5000710;28;20505;-77
2023/10/26 01:33:27;;;;;;;2.40;1.40;;;22.80;68.20;;;;;;5008216;28;20471;-76
2023/10/26 01:35:55;;;;;;;1.63;1.53;;;22.80;68.10;;;;;;5004573;28;20851;-76
2023/10/26 01:38:23;;;;;;;1.10;1.00;;;22.80;68.20;;;;;;5007536;28;20464;-77
2023/10/26 01:40:53;;;;;;;1.20;0.90;;;22.80;68.30;;;;;;5005145;28;20466;-77
2023/10/26 01:43:21;;;;;;;1.83;1.73;;;22.80;68.30;;;;;;5003506;28;20979;-77
2023/10/26 01:45:49;;;;;;;1.10;1.00;;;22.80;68.10;;;;;;5007538;28;20527;-77
2023/10/26 01:48:18;;;;;;;1.13;1.03;;;22.80;68.20;;;;;;5000023;28;20588;-77
2023/10/26 01:50:45;;;;;;;1.30;0.90;;;22.80;68.40;;;;;;5004641;28;20458;-77
2023/10/26 01:53:13;;;;;;;1.40;1.30;;;22.80;68.10;;;;;;5002136;28;20560;-77
2023/10/26 01:55:43;;;;;;;1.40;1.00;;;22.80;68.10;;;;;;5002958;28;20457;-76
2023/10/26 01:58:12;;;;;;;2.30;1.13;;;22.80;68.60;;;;;;5002068;28;20520;-77
2023/10/26 02:00:41;;;;;;;1.37;1.27;;;22.80;68.30;;;;;;5007097;28;20515;-76
2023/10/26 02:03:09;;;;;;;1.50;1.20;;;22.80;68.30;;;;;;5006240;28;20977;-77
2023/10/26 02:05:38;;;;;;;1.43;1.07;;;22.80;68.20;;;;;;5002686;28;20463;-77
2023/10/26 02:08:06;;;;;;;0.90;0.83;;;22.80;68.40;;;;;;5001761;28;20495;-77
2023/10/26 02:10:34;;;;;;;0.93;0.70;;;22.80;68.50;;;;;;5002103;28;20520;-77
2023/10/26 02:13:03;;;;;;;1.33;1.00;;;22.80;68.40;;;;;;5002765;28;20475;-77
2023/10/26 02:15:33;;;;;;;1.13;1.00;;;22.70;68.40;;;;;;5008483;28;20464;-77
2023/10/26 02:18:01;;;;;;;1.23;0.90;;;22.80;68.70;;;;;;5004514;28;21292;-77
2023/10/26 02:20:29;;;;;;;2.60;0.90;;;22.80;68.50;;;;;;5007623;28;20472;-77
2023/10/26 02:22:58;;;;;;;0.93;0.90;;;22.80;68.30;;;;;;5001482;28;20989;-77
2023/10/26 02:25:27;;;;;;;0.80;0.70;;;22.70;68.20;;;;;;5000394;28;20856;-77
2023/10/26 02:27:55;;;;;;;1.20;1.10;;;22.70;68.50;;;;;;4995261;28;20957;-77
2023/10/26 02:30:23;;;;;;;1.20;1.10;;;22.70;68.10;;;;;;5002117;28;20964;-77
2023/10/26 02:32:53;;;;;;;1.80;1.10;;;22.70;68.10;;;;;;5003968;28;20851;-77
2023/10/26 02:35:21;;;;;;;1.57;0.87;;;22.70;68.10;;;;;;5006337;28;20823;-77
2023/10/26 02:37:49;;;;;;;1.43;1.10;;;22.70;68.20;;;;;;5005357;28;20458;-77
2023/10/26 02:40:18;;;;;;;2.20;1.40;;;22.70;68.50;;;;;;5006803;28;20984;-77
2023/10/26 02:42:46;;;;;;;0.70;0.70;;;22.70;68.20;;;;;;5007299;28;20508;-77
2023/10/26 02:45:14;;;;;;;0.93;0.90;;;22.70;68.10;;;;;;5006411;28;20515;-77
2023/10/26 02:47:42;;;;;;;1.07;0.90;;;22.70;68.40;;;;;;5003095;28;20467;-77
2023/10/26 02:50:12;;;;;;;2.00;0.87;;;22.70;68.50;;;;;;5001556;28;20493;-77
2023/10/26 02:52:41;;;;;;;1.23;0.93;;;22.70;68.50;;;;;;5008024;28;20457;-77
2023/10/26 02:55:09;;;;;;;0.90;0.83;;;22.70;68.60;;;;;;5009677;28;20469;-78
2023/10/26 02:57:37;;;;;;;1.33;0.90;;;22.70;68.60;;;;;;5003015;28;20473;-77
2023/10/26 03:00:07;;;;;;;1.10;1.00;;;22.70;68.60;;;;;;5005525;28;20468;-77
2023/10/26 03:02:35;;;;;;;0.70;0.70;;;22.70;68.40;;;;;;5006476;28;20465;-77
2023/10/26 03:05:03;;;;;;;1.27;1.17;;;22.70;68.60;;;;;;5007892;28;20968;-77
2023/10/26 03:07:33;;;;;;;1.47;0.80;;;22.70;68.60;;;;;;4999691;28;20460;-77
2023/10/26 03:10:01;;;;;;;2.20;1.00;;;22.70;68.60;;;;;;5002010;28;20474;-77
2023/10/26 03:12:29;;;;;;;1.00;1.00;;;22.70;68.50;;;;;;5006429;28;20527;-77
2023/10/26 03:14:58;;;;;;;1.10;0.93;;;22.70;68.40;;;;;;5011319;28;20548;-77
2023/10/26 03:17:26;;;;;;;0.50;0.50;;;22.70;68.40;;;;;;5003205;28;20460;-77
2023/10/26 03:19:54;;;;;;;1.43;0.77;;;22.70;68.50;;;;;;5005029;28;20457;-77
2023/10/26 03:22:22;;;;;;;0.90;0.80;;;22.70;68.50;;;;;;4981249;28;20633;-78
2023/10/26 03:24:53;;;;;;;0.90;0.90;;;22.70;68.50;;;;;;4992908;28;20475;-77
2023/10/26 03:27:21;;;;;;;0.80;0.80;;;22.70;68.50;;;;;;5013562;28;20460;-77
2023/10/26 03:29:49;;;;;;;1.30;0.93;;;22.70;68.50;;;;;;5003894;28;20526;-77
2023/10/26 03:32:19;;;;;;;1.30;0.70;;;22.70;68.50;;;;;;5003118;28;20628;-77
2023/10/26 03:34:48;;;;;;;1.77;0.93;;;22.70;68.50;;;;;;5004728;28;20544;-76
2023/10/26 03:37:18;;;;;;;1.33;1.00;;;22.70;68.50;;;;;;5009385;28;20533;-77
2023/10/26 03:39:46;;;;;;;0.97;0.90;;;22.70;68.50;;;;;;5008438;28;20964;-77
2023/10/26 03:42:16;;;;;;;0.97;0.70;;;22.70;68.50;;;;;;5012286;28;20546;-77
2023/10/26 03:44:44;;;;;;;1.30;0.90;;;22.60;68.50;;;;;;5004544;28;20461;-77
2023/10/26 03:47:13;;;;;;;0.57;0.57;;;22.60;68.50;;;;;;5009249;28;20487;-76
2023/10/26 03:49:41;;;;;;;1.10;1.00;;;22.60;68.50;;;;;;5009459;28;20514;-77
2023/10/26 03:52:09;;;;;;;0.77;0.77;;;22.60;68.50;;;;;;5007460;28;20518;-76
2023/10/26 03:54:38;;;;;;;2.00;1.13;;;22.60;68.50;;;;;;5010794;28;20460;-76
2023/10/26 03:57:06;;;;;;;1.60;0.70;;;22.60;68.50;;;;;;5005950;28;20464;-76
2023/10/26 03:59:36;;;;;;;1.10;1.00;;;22.60;68.60;;;;;;5010134;28;20490;-77
2023/10/26 04:02:04;;;;;;;0.50;0.50;;;22.60;68.60;;;;;;5006043;28;20534;-76
2023/10/26 04:04:33;;;;;;;1.10;0.80;;;22.70;68.60;;;;;;5009039;28;20465;-77
2023/10/26 04:07:01;;;;;;;0.90;0.70;;;22.70;68.60;;;;;;5005167;28;20460;-76
2023/10/26 04:09:29;;;;;;;0.80;0.80;;;22.70;68.60;;;;;;5007943;28;20549;-76
2023/10/26 04:11:57;;;;;;;0.60;0.60;;;22.70;68.60;;;;;;5007331;28;20547;-76
2023/10/26 04:14:26;;;;;;;0.70;0.67;;;22.70;68.50;;;;;;5009769;28;20465;-77
2023/10/26 04:16:55;;;;;;;0.67;0.67;;;22.80;68.50;;;;;;5008895;28;20467;-77
2023/10/26 04:19:24;;;;;;;0.70;0.70;;;22.80;68.50;;;;;;5008217;28;20460;-77
2023/10/26 04:21:52;;;;;;;1.93;0.83;;;22.80;68.50;;;;;;5004799;28;20494;-77
2023/10/26 04:24:20;;;;;;;1.03;0.70;;;22.80;68.50;;;;;;5005369;28;20463;-77
2023/10/26 04:26:49;;;;;;;0.60;0.60;;;22.80;68.40;;;;;;5002458;28;20968;-77
2023/10/26 04:29:17;;;;;;;1.10;1.00;;;22.90;68.40;;;;;;5007577;28;20463;-78
2023/10/26 04:31:46;;;;;;;0.60;0.60;;;22.90;68.40;;;;;;5005374;28;20857;-77
2023/10/26 04:34:16;;;;;;;1.30;0.77;;;22.90;68.30;;;;;;5007170;28;20475;-77
2023/10/26 04:36:44;;;;;;;1.30;0.90;;;23.00;68.20;;;;;;5008589;28;20468;-77
2023/10/26 04:39:13;;;;;;;0.73;0.73;;;23.00;68.00;;;;;;5012170;28;20460;-77
2023/10/26 04:41:41;;;;;;;0.97;0.97;;;23.10;68.00;;;;;;5005410;28;20480;-77
2023/10/26 04:44:09;;;;;;;0.70;0.70;;;23.10;68.00;;;;;;5009867;28;20953;-77
2023/10/26 04:46:38;;;;;;;1.83;0.70;;;23.10;67.80;;;;;;5001203;28;20488;-76
2023/10/26 04:49:06;;;;;;;0.73;0.60;;;23.10;67.80;;;;;;5001069;28;20470;-76
2023/10/26 04:51:35;;;;;;;0.60;0.60;;;23.10;67.70;;;;;;5005097;28;20468;-77
2023/10/26 04:54:04;;;;;;;1.47;1.03;;;23.10;67.70;;;;;;5008907;28;20461;-77
2023/10/26 04:56:33;;;;;;;0.90;0.87;;;23.10;67.70;;;;;;5008310;28;21007;-76
2023/10/26 04:59:01;;;;;;;0.80;0.57;;;23.10;67.60;;;;;;5000988;28;20465;-76
2023/10/26 05:01:29;;;;;;;0.60;0.50;;;23.10;67.60;;;;;;5004126;28;20461;-76
2023/10/26 05:03:57;;;;;;;0.80;0.80;;;23.10;67.80;;;;;;5006018;28;20709;-77
2023/10/26 05:06:26;;;;;;;1.17;1.13;;;23.10;67.70;;;;;;5008349;28;20461;-79
2023/10/26 05:08:55;;;;;;;0.97;0.80;;;23.00;67.30;;;;;;5009948;28;20464;-76
2023/10/26 05:11:24;;;;;;;1.17;1.03;;;23.00;67.30;;;;;;5003630;28;20496;-79
2023/10/26 05:13:53;;;;;;;1.50;0.80;;;22.90;67.20;;;;;;5006701;28;20457;-76
2023/10/26 05:16:22;;;;;;;5.70;1.10;;;22.90;67.50;;;;;;5007070;28;20975;-78
2023/10/26 05:18:50;;;;;;;2.13;0.70;;;22.90;67.60;;;;;;5011836;28;20457;-77
2023/10/26 05:21:18;;;;;;;1.47;0.60;;;22.80;67.80;;;;;;5001080;28;20495;-77
2023/10/26 05:23:47;;;;;;;2.53;1.20;;;22.80;67.70;;;;;;5004309;28;20477;-75
2023/10/26 05:26:17;;;;;;;2.53;1.00;;;22.80;67.90;;;;;;5007418;28;20592;-78
2023/10/26 05:28:47;;;;;;;6.07;1.10;;;22.80;67.80;;;;;;5008432;28;20522;-77
2023/10/26 05:31:15;;;;;;;2.60;0.90;;;22.80;68.00;;;;;;5005689;28;20502;-78
2023/10/26 05:33:43;;;;;;;10.23;1.53;;;22.80;67.60;;;;;;5004978;28;20960;-78
2023/10/26 05:36:11;;;;;;;4.33;1.00;;;22.70;67.80;;;;;;5003669;28;20458;-78
2023/10/26 05:38:40;;;;;;;3.20;0.67;;;22.70;67.90;;;;;;5001236;28;20465;-79
2023/10/26 05:41:08;;;;;;;2.80;1.27;;;22.70;67.60;;;;;;4998754;28;20551;-78
2023/10/26 05:43:37;;;;;;;2.17;0.97;;;22.70;67.80;;;;;;5005317;28;20512;-79
2023/10/26 05:46:06;;;;;;;2.70;1.30;;;22.60;67.60;;;;;;5001240;28;24061;-79
2023/10/26 05:48:34;;;;;;;3.50;1.17;;;22.60;67.60;;;;;;4998332;28;20556;-79
2023/10/26 05:51:03;;;;;;;3.60;2.03;;;22.60;67.60;;;;;;4998845;28;20526;-79
2023/10/26 05:53:31;;;;;;;1.40;1.00;;;22.60;67.60;;;;;;5006478;28;20522;-79
2023/10/26 05:56:00;;;;;;;2.73;1.83;;;22.60;67.70;;;;;;5005714;28;20944;-79
2023/10/26 05:58:28;;;;;;;2.00;1.80;;;22.70;67.60;;;;;;5003070;28;20471;-79
2023/10/26 06:00:59;;;;;;;5.50;1.90;;;22.70;67.70;;;;;;4993932;28;20472;-79
2023/10/26 06:03:28;;;;;;;2.53;1.80;;;22.70;67.70;;;;;;5005364;28;20472;-79
2023/10/26 06:06:00;;;;;;;4.93;1.70;;;22.70;67.90;;;;;;5004494;28;20456;-79
2023/10/26 06:08:28;;;;;;;8.10;2.13;;;22.70;67.90;;;;;;5003928;28;20460;-79
2023/10/26 06:10:57;;;;;;;7.50;2.03;;;22.70;67.80;;;;;;4999694;28;20519;-79
2023/10/26 06:13:26;;;;;;;2.90;1.60;;;22.70;68.00;;;;;;4993215;28;20458;-79
2023/10/26 06:15:55;;;;;;;1.20;1.10;;;22.70;68.00;;;;;;5006596;28;20470;-79
2023/10/26 06:18:24;;;;;;;1.43;1.27;;;22.70;67.90;;;;;;5003081;28;20477;-79
2023/10/26 06:20:59;;;;;;;2.60;1.43;;;22.70;67.70;;;;;;5006455;28;21077;-79
2023/10/26 06:23:28;;;;;;;1.83;1.73;;;22.80;67.90;;;;;;4995894;28;20476;-79
2023/10/26 06:26:01;;;;;;;2.60;1.50;;;22.80;67.80;;;;;;4998281;28;20900;-78
2023/10/26 06:28:30;;;;;;;1.53;1.20;;;22.80;67.70;;;;;;5001144;28;20471;-79
2023/10/26 06:31:09;;;;;;;1.57;1.47;;;22.80;67.40;;;;;;4990123;28;20488;-79
2023/10/26 06:33:39;;;;;;;3.43;1.87;;;22.80;67.40;;;;;;5006437;28;20546;-79
2023/10/26 06:36:09;;;;;;;1.60;1.50;;;22.80;67.40;;;;;;4993807;28;20501;-79
2023/10/26 06:38:38;;;;;;;6.30;4.13;;;22.80;67.60;;;;;;4997121;28;20817;-79
2023/10/26 06:41:06;;;;;;;1.47;1.37;;;22.80;67.60;;;;;;4997021;28;20466;-79
2023/10/26 06:43:36;;;;;;;1.77;1.67;;;22.80;67.50;;;;;;5002146;28;20702;-79
2023/10/26 06:46:05;;;;;;;1.00;1.00;;;22.80;67.50;;;;;;4997256;28;21237;-78
2023/10/26 06:48:34;;;;;;;2.20;1.60;;;22.70;67.30;;;;;;5002562;28;20474;-82
2023/10/26 06:51:04;;;;;;;1.27;0.97;;;22.70;67.40;;;;;;5005817;28;20475;-81
2023/10/26 06:53:33;;;;;;;3.50;1.13;;;22.70;67.50;;;;;;5008576;28;20464;-81
2023/10/26 06:56:01;;;;;;;2.03;1.30;;;22.80;67.50;;;;;;5003046;28;20466;-81
2023/10/26 06:58:29;;;;;;;2.20;1.20;;;22.80;67.30;;;;;;5003565;28;20466;-78
2023/10/26 07:00:58;;;;;;;1.37;1.27;;;22.80;67.40;;;;;;5004583;28;20457;-79
2023/10/26 07:03:26;;;;;;;1.43;1.33;;;22.80;67.40;;;;;;5000837;28;21030;-80
2023/10/26 07:05:54;;;;;;;1.70;1.60;;;22.80;67.20;;;;;;5007542;28;20480;-81
2023/10/26 07:08:25;;;;;;;1.53;1.43;;;22.80;67.10;;;;;;5007350;28;20468;-81
2023/10/26 07:10:54;;;;;;;1.40;1.30;;;22.80;67.10;;;;;;5003865;28;20461;-82
2023/10/26 07:13:22;;;;;;;1.20;1.10;;;22.80;67.00;;;;;;4999404;28;20457;-81
2023/10/26 07:15:51;;;;;;;1.67;1.50;;;22.90;66.90;;;;;;5003100;28;20453;-80
2023/10/26 07:18:19;;;;;;;2.67;1.83;;;22.90;66.90;;;;;;5004669;28;20471;-81
2023/10/26 07:20:49;;;;;;;1.47;1.37;;;22.90;66.80;;;;;;4999564;28;20465;-82
2023/10/26 07:23:19;;;;;;;1.13;1.13;;;22.90;66.70;;;;;;5006330;28;20478;-80
2023/10/26 07:25:49;;;;;;;1.97;1.37;;;22.90;66.70;;;;;;5001718;28;20464;-79
2023/10/26 07:28:18;;;;;;;1.90;1.80;;;22.90;66.50;;;;;;5002130;28;20454;-83
2023/10/26 07:30:50;;;;;;;1.37;1.20;;;23.00;66.50;;;;;;5009427;28;20580;-81
2023/10/26 07:33:19;;;;;;;1.60;1.50;;;23.00;66.60;;;;;;5002483;28;20453;-81
2023/10/26 07:35:52;;;;;;;1.70;1.53;;;23.00;66.60;;;;;;5000675;28;20469;-81
2023/10/26 07:38:20;;;;;;;4.37;1.53;;;23.10;66.50;;;;;;4999304;28;20459;-80
2023/10/26 07:41:05;;;;;;;1.87;1.60;;;23.10;66.40;;;;;;5004066;28;20474;-81
2023/10/26 07:43:34;;;;;;;13.33;2.27;;;23.10;66.20;;;;;;5007743;28;20894;-82
2023/10/26 07:46:03;;;;;;;1.50;1.40;;;23.10;66.20;;;;;;4999187;28;20511;-79
2023/10/26 07:48:31;;;;;;;1.57;1.23;;;23.10;66.10;;;;;;5002271;28;20530;-82
2023/10/26 07:51:00;;;;;;;3.47;1.20;;;23.10;66.00;;;;;;5001305;28;20476;-82
2023/10/26 07:53:29;;;;;;;1.23;1.13;;;23.10;66.00;;;;;;5005458;28;20459;-82
2023/10/26 07:55:57;;;;;;;1.63;1.33;;;23.10;65.90;;;;;;5002296;28;20950;-81
2023/10/26 07:58:27;;;;;;;1.80;1.17;;;23.10;65.90;;;;;;5003462;28;20470;-81
2023/10/26 08:00:56;;;;;;;1.30;1.20;;;23.20;65.80;;;;;;5001190;28;20485;-81
2023/10/26 08:03:25;;;;;;;1.33;0.97;;;23.10;65.80;;;;;;5004821;28;20910;-80
2023/10/26 08:05:57;;;;;;;1.93;0.90;;;23.20;65.80;;;;;;5007167;28;20519;-82
2023/10/26 08:08:26;;;;;;;1.20;1.00;;;23.20;65.80;;;;;;5002247;28;20468;-80
2023/10/26 08:10:54;;;;;;;4.03;1.40;;;23.20;65.80;;;;;;5002198;28;20460;-82
2023/10/26 08:13:23;;;;;;;2.83;1.30;;;23.20;65.60;;;;;;5006441;28;20493;-82
2023/10/26 08:15:53;;;;;;;2.20;1.30;;;23.20;65.70;;;;;;4998924;28;20457;-80
2023/10/26 08:18:42;;;;;;;2.00;1.23;;;23.20;65.70;;;;;;4998225;28;20918;-79
2023/10/26 08:21:10;;;;;;;2.33;1.10;;;23.20;65.70;;;;;;5005202;28;20469;-82
2023/10/26 08:23:39;;;;;;;2.47;1.30;;;23.20;65.60;;;;;;5002385;28;20478;-80
2023/10/26 08:26:08;;;;;;;1.00;0.90;;;23.20;65.60;;;;;;5009133;28;20968;-81
2023/10/26 08:28:37;;;;;;;0.97;0.97;;;23.20;65.60;;;;;;5007981;28;20454;-82
2023/10/26 08:31:07;;;;;;;1.10;1.07;;;23.20;65.60;;;;;;5008821;28;20490;-82
2023/10/26 08:33:36;;;;;;;1.10;1.00;;;23.20;65.60;;;;;;5006135;28;20967;-81
2023/10/26 08:36:05;;;;;;;4.20;1.40;;;23.20;65.60;;;;;;5011103;28;20469;-84
2023/10/26 08:38:33;;;;;;;1.00;1.00;;;23.20;65.60;;;;;;5006666;28;20511;-82
2023/10/26 08:41:02;;;;;;;1.10;1.00;;;23.20;65.70;;;;;;5001375;28;20458;-82
2023/10/26 08:43:31;;;;;;;0.97;0.80;;;23.20;65.70;;;;;;5005297;28;20488;-83
2023/10/26 08:46:00;;;;;;;1.33;0.97;;;23.20;65.70;;;;;;5005282;28;20453;-80
2023/10/26 08:48:34;;;;;;;0.80;0.80;;;23.20;65.70;;;;;;5002705;28;20466;-82
2023/10/26 08:51:03;;;;;;;1.07;0.73;;;23.20;65.70;;;;;;5003696;28;20454;-82
2023/10/26 08:53:31;;;;;;;1.60;1.03;;;23.20;65.70;;;;;;5004628;28;20460;-80
2023/10/26 08:56:00;;;;;;;0.60;0.60;;;23.30;65.70;;;;;;5008066;28;20830;-81
2023/10/26 08:58:28;;;;;;;0.80;0.80;;;23.30;65.70;;;;;;5001931;28;20485;-82
2023/10/26 09:00:57;;;;;;;0.83;0.80;;;23.30;65.60;;;;;;5001668;28;20465;-81
2023/10/26 09:03:26;;;;;;;0.87;0.60;;;23.30;65.60;;;;;;5009011;28;20555;-79
2023/10/26 09:05:57;;;;;;;1.20;0.70;;;23.30;65.50;;;;;;5003378;28;20714;-79
2023/10/26 09:08:27;;;;;;;0.60;0.60;;;23.30;65.50;;;;;;5003325;28;20466;-83
2023/10/26 09:10:56;;;;;;;1.10;0.80;;;23.30;65.40;;;;;;4998786;28;20459;-72
2023/10/26 09:13:26;;;;;;;1.10;1.00;;;23.30;65.40;;;;;;5004042;28;20563;-72
2023/10/26 09:15:58;;;;;;;1.27;1.00;;;23.40;65.20;;;;;;5002774;28;20457;-72
2023/10/26 09:18:27;;;;;;;1.10;1.00;;;23.30;65.10;;;;;;5005812;28;20477;-72
2023/10/26 09:21:05;;;;;;;0.80;0.80;;;23.30;65.10;;;;;;5005952;28;20488;-71
2023/10/26 09:23:35;;;;;;;1.30;1.00;;;23.30;65.10;;;;;;5000589;28;20462;-73
2023/10/26 09:26:07;;;;;;;1.30;0.90;;;23.30;65.00;;;;;;5008237;28;20481;-72
2023/10/26 09:28:49;;;;;;;1.10;1.00;;;23.30;65.10;;;;;;5007990;28;20489;-72
2023/10/26 09:31:18;;;;;;;2.07;0.80;;;23.30;65.20;;;;;;4998999;28;20486;-73
2023/10/26 09:33:47;;;;;;;1.43;1.33;;;23.30;65.30;;;;;;5001895;28;21017;-72
2023/10/26 09:36:18;;;;;;;0.97;0.93;;;23.20;65.20;;;;;;5006037;28;20445;-72
2023/10/26 09:38:47;;;;;;;1.20;0.97;;;23.20;65.20;;;;;;5001744;28;20462;-72
2023/10/26 09:41:18;;;;;;;1.47;0.80;;;23.20;65.30;;;;;;5000719;28;20468;-68
2023/10/26 09:43:47;;;;;;;1.10;1.00;;;23.20;65.50;;;;;;5000364;28;20498;-68
2023/10/26 09:46:17;;;;;;;1.17;1.03;;;23.20;65.70;;;;;;4997069;28;20479;-68
2023/10/26 09:48:46;;;;;;;1.43;0.93;;;23.20;65.80;;;;;;5001919;28;20463;-69
2023/10/26 09:51:19;;;;;;;1.30;1.20;;;23.20;65.90;;;;;;5004225;28;20977;-69
2023/10/26 09:53:49;;;;;;;1.03;0.93;;;23.20;65.90;;;;;;4996000;28;20555;-69
2023/10/26 09:56:25;;;;;;;1.00;0.90;;;23.20;66.00;;;;;;5003520;28;20463;-69
2023/10/26 09:58:54;;;;;;;1.83;1.00;;;23.20;66.00;;;;;;4997643;28;20469;-68
2023/10/26 10:01:33;;;;;;;0.90;0.90;;;23.20;66.10;;;;;;5001685;28;20460;-69
2023/10/26 10:04:03;;;;;;;0.97;0.80;;;23.20;66.20;;;;;;5004114;28;20475;-69
2023/10/26 10:06:52;;;;;;;1.07;0.97;;;23.20;66.10;;;;;;5000358;28;20469;-69
2023/10/26 10:09:24;;;;;;;1.10;0.80;;;23.30;66.10;;;;;;4997319;28;20474;-68
2023/10/26 10:12:30;;;;;;;2.07;1.27;;;23.30;66.10;;;;;;5003268;28;20474;-68
2023/10/26 10:15:00;;;;;;;1.23;1.23;;;23.40;65.90;;;;;;5001993;28;20461;-68
2023/10/26 10:18:13;;;;;;;0.80;0.80;;;23.40;65.90;;;;;;5004428;28;20464;-68
2023/10/26 10:20:42;;;;;;;1.80;1.10;;;23.50;65.80;;;;;;5000600;28;20486;-68
2023/10/26 10:23:30;;;;;;;0.87;0.77;;;23.50;65.70;;;;;;5002445;28;20462;-69
2023/10/26 10:26:01;;;;;;;1.27;1.17;;;23.50;65.70;;;;;;4998289;28;20480;-68
2023/10/26 10:28:48;;;;;;;1.27;1.17;;;23.50;65.60;;;;;;5000314;28;21072;-68
2023/10/26 10:31:24;;;;;;;1.03;1.00;;;23.50;65.40;;;;;;4999482;28;20497;-68
2023/10/26 10:34:03;;;;;;;0.70;0.70;;;23.50;65.30;;;;;;4995797;28;20542;-67
2023/10/26 10:37:21;;;;;;;1.97;1.40;;;23.50;65.30;;;;;;4994375;28;20459;-67
2023/10/26 10:40:14;;;;;;;4.00;0.73;;;23.50;65.30;;;;;;5001266;28;20470;-68
2023/10/26 10:42:47;;;;;;;1.20;1.10;;;23.50;65.30;;;;;;5006825;28;20547;-68
2023/10/26 10:45:16;;;;;;;0.87;0.87;;;23.50;65.20;;;;;;5005925;28;20476;-67
2023/10/26 10:47:46;;;;;;;0.70;0.67;;;23.50;65.20;;;;;;4996311;28;20950;-67
2023/10/26 10:50:19;;;;;;;1.47;0.87;;;23.50;65.20;;;;;;5003742;28;20995;-67
2023/10/26 10:52:48;;;;;;;0.80;0.80;;;23.50;65.30;;;;;;5006059;28;20473;-68
2023/10/26 10:55:25;;;;;;;1.23;1.00;;;23.50;65.30;;;;;;5003709;28;20466;-68
2023/10/26 10:57:55;;;;;;;1.83;0.80;;;23.50;65.20;;;;;;5002268;28;20881;-67
2023/10/26 11:00:24;;;;;;;1.50;0.70;;;23.50;65.20;;;;;;5003410;28;20485;-67
2023/10/26 11:02:56;;;;;;;1.47;0.80;;;23.60;65.20;;;;;;4996655;28;20484;-67
2023/10/26 11:05:36;;;;;;;1.00;1.00;;;23.60;65.20;;;;;;5005492;28;20477;-67
2023/10/26 11:08:05;;;;;;;2.83;1.43;;;23.60;65.20;;;;;;5003679;28;20460;-67
2023/10/26 11:10:35;;;;;;;0.70;0.70;;;23.60;65.20;;;;;;5000086;28;20968;-76
2023/10/26 11:13:04;;;;;;;0.70;0.70;;;23.60;65.20;;;;;;5004121;28;20519;-77
2023/10/26 11:15:34;;;;;;;2.93;1.27;;;23.70;65.20;;;;;;4998969;28;20465;-77
2023/10/26 11:18:04;;;;;;;1.00;1.00;;;23.70;65.10;;;;;;5003996;28;20541;-78
2023/10/26 11:20:34;;;;;;;1.83;1.50;;;23.70;65.00;;;;;;5002572;28;20473;-75
2023/10/26 11:23:02;;;;;;;3.13;1.83;;;23.80;65.20;;;;;;5007043;28;20464;-78
2023/10/26 11:25:30;;;;;;;1.53;1.17;;;23.80;65.20;;;;;;5001022;28;20962;-77
2023/10/26 11:28:00;;;;;;;3.77;1.30;;;23.80;65.10;;;;;;5003289;28;20475;-77
2023/10/26 11:30:30;;;;;;;1.10;0.90;;;23.80;65.20;;;;;;5004437;28;21455;-76
2023/10/26 11:32:58;;;;;;;1.27;1.00;;;23.80;65.20;;;;;;5005973;28;20448;-77
2023/10/26 11:35:27;;;;;;;1.20;1.10;;;23.80;65.10;;;;;;5007379;28;20459;-78
2023/10/26 11:37:56;;;;;;;2.70;1.20;;;23.80;65.20;;;;;;5000134;28;20454;-78
2023/10/26 11:40:32;;;;;;;3.43;1.30;;;23.80;65.20;;;;;;5004749;28;20466;-77
2023/10/26 11:43:03;;;;;;;1.30;1.20;;;23.80;65.20;;;;;;4996323;28;20460;-78
2023/10/26 11:45:48;;;;;;;2.87;1.30;;;23.80;65.20;;;;;;5007041;28;20965;-77
2023/10/26 11:48:27;;;;;;;1.50;1.10;;;23.80;65.20;;;;;;5005038;28;20455;-78
2023/10/26 11:50:56;;;;;;;1.43;1.10;;;23.90;65.20;;;;;;5003556;28;20560;-77
2023/10/26 11:53:26;;;;;;;1.43;1.33;;;23.90;65.20;;;;;;5007588;28;20466;-78
2023/10/26 11:55:55;;;;;;;1.60;1.30;;;24.00;65.10;;;;;;5007678;28;20457;-78
2023/10/26 11:58:25;;;;;;;2.00;1.47;;;24.10;65.00;;;;;;5009598;28;20457;-77
2023/10/26 12:00:53;;;;;;;1.60;1.10;;;24.20;64.90;;;;;;5009192;28;20966;-76
2023/10/26 12:03:22;;;;;;;2.20;1.20;;;24.20;64.60;;;;;;5013677;28;20468;-77
2023/10/26 12:05:50;;;;;;;4.07;1.10;;;24.30;64.50;;;;;;5015572;28;20560;-77
2023/10/26 12:08:18;;;;;;;4.30;1.37;;;24.30;64.40;;;;;;5007820;28;20465;-78
2023/10/26 12:10:47;;;;;;;2.97;1.10;;;24.40;64.20;;;;;;5005044;28;20468;-78
2023/10/26 12:13:15;;;;;;;3.43;1.10;;;24.50;64.00;;;;;;5010342;28;20708;-75
2023/10/26 12:15:45;;;;;;;1.70;0.93;;;24.50;63.80;;;;;;5008046;28;20528;-76
2023/10/26 12:18:13;;;;;;;1.90;1.53;;;24.60;63.80;;;;;;5006037;28;20468;-78
2023/10/26 12:20:41;;;;;;;1.43;1.27;;;24.60;63.80;;;;;;5010383;28;20980;-77
2023/10/26 12:23:09;;;;;;;1.70;1.10;;;24.60;63.70;;;;;;5004438;28;20943;-77
2023/10/26 12:25:40;;;;;;;1.80;1.00;;;24.70;63.60;;;;;;5013221;28;20461;-77
2023/10/26 12:28:08;;;;;;;1.53;1.30;;;24.70;63.60;;;;;;4999246;28;20469;-76
2023/10/26 12:30:51;;;;;;;1.50;1.13;;;24.70;63.60;;;;;;5002450;28;20500;-77
2023/10/26 12:33:20;;;;;;;1.80;1.60;;;24.60;63.80;;;;;;5007546;28;20494;-77
2023/10/26 12:35:48;;;;;;;1.20;1.10;;;24.60;64.00;;;;;;5007367;28;20592;-78
2023/10/26 12:38:19;;;;;;;1.73;1.13;;;24.60;64.40;;;;;;5011632;28;20463;-78
2023/10/26 12:40:48;;;;;;;1.90;1.50;;;24.50;64.00;;;;;;5007254;28;20466;-77
2023/10/26 12:43:16;;;;;;;0.80;0.80;;;24.50;64.60;;;;;;5003841;28;20993;-78
2023/10/26 12:45:44;;;;;;;1.40;1.30;;;24.40;64.50;;;;;;5001053;28;20474;-77
2023/10/26 12:48:14;;;;;;;1.07;0.97;;;24.40;64.50;;;;;;5001371;28;20993;-76
2023/10/26 12:50:42;;;;;;;1.40;1.10;;;24.50;64.60;;;;;;4994562;28;20531;-77
2023/10/26 12:53:12;;;;;;;1.90;1.03;;;24.60;64.30;;;;;;5009407;28;20461;-78
2023/10/26 12:55:40;;;;;;;1.20;1.07;;;24.70;63.90;;;;;;5010136;28;20460;-77
2023/10/26 12:58:08;;;;;;;1.93;1.23;;;24.80;63.80;;;;;;5007055;28;20458;-78
2023/10/26 13:00:37;;;;;;;1.17;1.10;;;24.80;63.60;;;;;;5001949;28;20463;-78
2023/10/26 13:03:05;;;;;;;1.47;0.70;;;24.90;63.40;;;;;;5006486;28;20460;-78